• Join FlightAware (Why Join?)
  • Login
  • US Flag 
06:32AM EST


 

Airport Tracker/Info


-or-


 

Live Flight TrackerFlight Track Log ✈ N775NC ✈ 21-Apr-2012 ✈ KORD - KDTW

Flight Track Log - Related Links

Times and Time Zones

All times are in EDT time to prevent confusion due to time zone crossing. See the N775NC flight status page for this flight to view local times or setup timezone preferences in your user account.

Time Position Orientation Groundspeed Altitude Reporting Facility
EDT Latitude Longitude Course Direction KTS MPH feet Rate Location/Type
03:39PM 42.0167 -87.9333 360° North 178 205 2,500  Level Chicago TRACON
03:40PM 42.0833 -87.9333 349° North 219 252 4,700 2,220 Climbing Chicago TRACON
03:41PM 42.1544 -87.9522 32° Northeast 233 268 7,300 2,400 Climbing Chicago Center
03:42PM 42.2183 -87.8975 37° Northeast 245 282 9,800 1,800 Climbing Chicago Center
03:43PM 42.2861 -87.8286 42° Northeast 276 318 10,900 1,740 Climbing Chicago Center
03:44PM 42.3600 -87.7369 14° North 333 383 13,300 2,280 Climbing Chicago Center
03:45PM 42.4575 -87.7036 North 351 404 15,500 2,220 Climbing Chicago Center
03:46PM 42.5553 -87.6869 22° Northeast 356 410 17,800 1,860 Climbing Chicago Center
03:47PM 42.6461 -87.6364 49° Northeast 362 417 19,300 1,560 Climbing Chicago Center
03:48PM 42.7153 -87.5272 74° East 442 509 21,000 1,560 Climbing Chicago Center
03:49PM 42.7522 -87.3564 76° East 444 511 22,500 960 Climbing Chicago Center
03:50PM 42.7786 -87.2086 74° East 439 505 23,000 240 Climbing Chicago Center
03:51PM 42.8150 -87.0347 69° East 451 519 23,000  Level Chicago Center
03:52PM 42.8636 -86.8656 65° Northeast 460 529 23,000  Level Chicago Center
03:53PM 42.9183 -86.7019 64° Northeast 470 541 23,000  Level Chicago Center
03:54PM 42.9769 -86.5403 62° Northeast 470 541 23,000  Level Chicago Center
03:55PM 43.0356 -86.3872 63° Northeast 470 541 23,000  Level Chicago Center
03:56PM 43.1000 -86.2164 60° Northeast 459 528 23,000  Level Chicago Center
03:57PM 43.1586 -86.0767 71° East 438 504 23,000  Level Chicago Center
03:58PM 43.1903 -85.9525 82° East 425 489 23,000  Level Chicago Center
03:59PM 43.2078 -85.7722 83° East 417 480 23,000  Level Chicago Center
04:01PM 43.2428 -85.3661 96° East 452 520 23,000  Level Cleveland Center
04:02PM 43.2306 -85.2056 111° Southeast 437 503 23,000  Level Cleveland Center
04:03PM 43.1867 -85.0514 111° Southeast 420 483 23,000  Level Cleveland Center
04:04PM 43.1444 -84.9003 106° East 425 489 23,000  Level Cleveland Center
04:05PM 43.1069 -84.7269 105° East 430 495 23,000  Level Cleveland Center
04:06PM 43.0750 -84.5683 98° East 430 495 23,000 -600 Level Cleveland Center
04:07PM 43.0575 -84.4081 93° East 430 495 21,800 -1,380 Descending Cleveland Center
04:08PM 43.0503 -84.2483 107° East 424 488 20,300 -2,040 Descending Cleveland Center
04:09PM 43.0172 -84.1017 106° East 418 481 17,800 -2,820 Descending Cleveland Center
04:10PM 43.0008 -84.0211 112° Southeast 398 458 16,000 -2,760 Descending Cleveland Center
04:11PM 42.9553 -83.8683 146° Southeast 368 423 13,000 -1,980 Descending Cleveland Center
04:12PM 42.8781 -83.7961 152° Southeast 365 420 11,900 -540 Descending Cleveland Center
04:13PM 42.7758 -83.7231 153° Southeast 367 422 12,000  Climbing Cleveland Center
04:14PM 42.6878 -83.6622 152° Southeast 362 417 12,000  Level Cleveland Center
04:15PM 42.6164 -83.6108 154° Southeast 357 411 12,000  Level Cleveland Center
04:16PM 42.5242 -83.5500 153° Southeast 352 405 12,000  Level Cleveland Center
04:17PM 42.4300 -83.4836 138° Southeast 352 405 12,000 -60 Level Cleveland Center
04:18PM 42.3592 -83.3961 122° Southeast 347 399 11,900 -120 Descending Cleveland Center
04:19PM 42.3094 -83.2900 133° Southeast 273 314 11,800 -480 Descending Cleveland Center
04:20PM 42.2672 -83.2292 180° South 262 302 11,000 -720 Descending Cleveland Center
04:21PM 42.1983 -83.2292 199° South 250 288 10,500 -1,080 Descending Cleveland Center
04:22PM 42.1161 -83.2678 203° Southwest 247 284 8,700 -1,440 Descending Cleveland Center
04:23PM 42.0656 -83.2964 211° Southwest 245 282 7,600 -1,380 Descending Cleveland Center
04:24PM 42.0103 -83.3414 282° West 237 273 6,200 -1,380 Descending Cleveland Center
04:25PM 42.0228 -83.4231 282° West 214 246 4,800 -1,380 Descending Cleveland Center